createdAt,value
2023-04-16T00:00:23.312Z,538.6154
2023-04-16T00:01:24.722Z,537.6923
2023-04-16T00:02:27.821Z,537.7692
2023-04-16T00:03:27.774Z,535.9231
2023-04-16T00:04:29.150Z,535.8461
2023-04-16T00:05:30.438Z,536.7692
2023-04-16T00:06:32.678Z,537.3077
2023-04-16T00:07:33.377Z,538.2308
2023-04-16T00:08:34.883Z,539.1539
2023-04-16T00:09:36.217Z,538.1539
2023-04-16T00:10:37.738Z,537.3846
2023-04-16T00:11:39.103Z,535.6923
2023-04-16T00:12:40.734Z,535.0769
2023-04-16T00:13:42.181Z,535.0000
2023-04-16T00:14:43.578Z,536.3077
2023-04-16T00:15:44.858Z,536.9231
2023-04-16T00:16:47.348Z,536.7692
2023-04-16T00:17:47.933Z,537.5385
2023-04-16T00:18:49.365Z,536.6923
2023-04-16T00:19:50.642Z,534.5385
2023-04-16T00:20:52.665Z,533.3077
2023-04-16T00:21:53.530Z,532.9231
2023-04-16T00:22:55.219Z,532.0000
2023-04-16T00:23:56.453Z,536.3846
2023-04-16T00:24:58.705Z,538.3077
2023-04-16T00:25:59.203Z,538.2308
2023-04-16T00:27:00.731Z,538.2308
2023-04-16T00:28:02.177Z,538.9231
2023-04-16T00:29:03.656Z,538.0000
2023-04-16T00:30:04.980Z,535.1539
2023-04-16T00:31:06.537Z,532.5385
2023-04-16T00:32:07.917Z,534.3077
2023-04-16T00:33:09.392Z,536.9231
2023-04-16T00:34:11.149Z,537.2308
2023-04-16T00:35:12.354Z,537.6923
2023-04-16T00:36:16.574Z,538.6154
2023-04-16T00:37:16.088Z,536.6923
2023-04-16T00:38:16.601Z,537.3077
2023-04-16T00:39:18.052Z,535.6923
2023-04-16T00:40:19.432Z,535.2308
2023-04-16T00:41:20.876Z,536.4615
2023-04-16T00:42:22.321Z,537.6154
2023-04-16T00:43:23.782Z,536.6923
2023-04-16T00:44:25.332Z,538.0769
2023-04-16T00:45:26.691Z,538.7692
2023-04-16T00:46:28.209Z,540.0769
2023-04-16T00:47:29.551Z,539.5385
2023-04-16T00:48:31.059Z,536.5385
2023-04-16T00:49:32.497Z,535.2308
2023-04-16T00:50:33.936Z,535.0769
2023-04-16T00:51:35.319Z,535.3077
2023-04-16T00:52:36.797Z,535.3846
2023-04-16T00:53:38.266Z,536.0769
2023-04-16T00:54:39.735Z,535.6923
2023-04-16T00:55:41.129Z,536.5385
2023-04-16T00:56:42.580Z,539.0769
2023-04-16T00:57:44.015Z,538.6923
2023-04-16T00:58:45.518Z,537.3077
2023-04-16T00:59:46.947Z,536.1539
2023-04-16T01:00:48.316Z,533.9231
2023-04-16T01:01:49.781Z,533.5385
2023-04-16T01:02:51.364Z,534.0769
2023-04-16T01:03:52.895Z,536.9231
2023-04-16T01:04:54.136Z,537.2308
2023-04-16T01:05:55.535Z,538.7692
2023-04-16T01:06:57.053Z,538.3077
2023-04-16T01:07:58.518Z,538.0769
2023-04-16T01:09:00.042Z,538.2308
2023-04-16T01:10:01.509Z,539.5385
2023-04-16T01:11:02.876Z,539.5385
2023-04-16T01:12:04.300Z,539.6154
2023-04-16T01:13:05.722Z,540.3846
2023-04-16T01:14:09.204Z,539.8461
2023-04-16T01:15:08.670Z,541.1539
2023-04-16T01:16:10.100Z,540.1539
2023-04-16T01:17:11.516Z,537.9231
2023-04-16T01:18:12.952Z,539.3077
2023-04-16T01:19:14.481Z,537.4615
2023-04-16T01:20:17.751Z,534.8461
2023-04-16T01:21:17.272Z,536.8461
2023-04-16T01:22:18.697Z,535.6923
2023-04-16T01:23:20.184Z,535.7692
2023-04-16T01:24:21.713Z,535.0000
2023-04-16T01:25:23.153Z,536.3077
2023-04-16T01:26:25.139Z,536.6923
2023-04-16T01:27:25.957Z,535.9231
2023-04-16T01:28:28.137Z,535.7692
2023-04-16T01:29:28.879Z,536.9231
2023-04-16T01:30:30.339Z,536.5385
2023-04-16T01:31:31.747Z,537.1539
2023-04-16T01:32:33.227Z,537.1539
2023-04-16T01:33:34.632Z,533.5385
2023-04-16T01:34:36.742Z,534.2308
2023-04-16T01:35:37.608Z,538.3077
2023-04-16T01:36:38.948Z,541.5385
2023-04-16T01:37:40.397Z,540.8461
2023-04-16T01:38:41.795Z,538.3846
2023-04-16T01:39:43.286Z,536.6923
2023-04-16T01:40:44.706Z,536.8461
2023-04-16T01:41:46.225Z,539.7692
2023-04-16T01:42:47.560Z,541.1539
2023-04-16T01:43:49.061Z,543.4615
2023-04-16T01:44:50.480Z,544.3077
2023-04-16T01:45:51.943Z,544.0000
2023-04-16T01:46:53.379Z,542.0000
2023-04-16T01:47:54.845Z,541.2308
2023-04-16T01:48:56.237Z,541.5385
2023-04-16T01:49:57.752Z,539.3077
2023-04-16T01:50:59.147Z,535.9231
2023-04-16T01:52:00.619Z,534.7692
2023-04-16T01:53:01.992Z,535.9231
2023-04-16T01:54:03.435Z,540.4615
2023-04-16T01:55:04.962Z,543.3846
2023-04-16T01:56:06.401Z,541.6154
2023-04-16T01:57:07.786Z,539.3077
2023-04-16T01:58:09.232Z,539.5385
2023-04-16T01:59:11.821Z,537.7692
2023-04-16T02:00:12.164Z,536.6154
2023-04-16T02:01:13.772Z,537.3846
2023-04-16T02:02:15.113Z,540.6154
2023-04-16T02:03:16.695Z,538.4615
2023-04-16T02:04:17.906Z,537.5385
2023-04-16T02:05:19.396Z,537.5385
2023-04-16T02:06:20.828Z,536.7692
2023-04-16T02:07:22.388Z,537.8461
2023-04-16T02:08:23.731Z,538.3846
2023-04-16T02:09:25.224Z,537.0000
2023-04-16T02:10:26.684Z,537.3846
2023-04-16T02:11:28.102Z,538.5385
2023-04-16T02:12:29.499Z,537.3077
2023-04-16T02:13:30.949Z,538.0000
2023-04-16T02:14:32.530Z,539.0000
2023-04-16T02:15:33.866Z,539.1539
2023-04-16T02:16:35.378Z,540.4615
2023-04-16T02:17:36.735Z,540.3846
2023-04-16T02:18:38.201Z,539.7692
2023-04-16T02:19:39.580Z,537.6154
2023-04-16T02:20:41.097Z,538.2308
2023-04-16T02:21:42.486Z,536.8461
2023-04-16T02:22:43.970Z,538.2308
2023-04-16T02:23:45.348Z,538.9231
2023-04-16T02:24:46.908Z,535.2308
2023-04-16T02:25:48.312Z,538.4615
2023-04-16T02:26:49.797Z,538.1539
2023-04-16T02:27:51.178Z,536.9231
2023-04-16T02:28:52.577Z,538.3077
2023-04-16T02:29:54.017Z,538.4615
2023-04-16T02:30:55.497Z,538.6923
2023-04-16T02:31:57.002Z,535.7692
2023-04-16T02:32:58.460Z,538.5385
2023-04-16T02:33:59.788Z,538.3077
2023-04-16T02:35:01.288Z,538.0769
2023-04-16T02:36:02.689Z,536.4615
2023-04-16T02:37:04.156Z,535.6154
2023-04-16T02:38:05.560Z,535.1539
2023-04-16T02:39:07.170Z,535.6154
2023-04-16T02:40:08.488Z,534.6923
2023-04-16T02:41:09.905Z,534.9231
2023-04-16T02:42:11.413Z,534.0769
2023-04-16T02:43:12.746Z,535.8461
2023-04-16T02:44:14.309Z,537.8461
2023-04-16T02:45:15.708Z,538.6923
2023-04-16T02:46:17.233Z,538.7692
2023-04-16T02:47:18.633Z,538.6154
2023-04-16T02:48:20.018Z,539.6923
2023-04-16T02:49:24.148Z,538.6923
2023-04-16T02:50:22.906Z,538.6154
2023-04-16T02:51:24.712Z,535.7692
2023-04-16T02:52:25.930Z,538.8461
2023-04-16T02:53:27.248Z,538.3846
2023-04-16T02:54:28.768Z,538.0769
2023-04-16T02:55:30.140Z,538.2308
2023-04-16T02:56:32.253Z,539.6923
2023-04-16T02:57:33.066Z,539.3846
2023-04-16T02:58:34.510Z,537.1539
2023-04-16T02:59:35.858Z,537.2308
2023-04-16T03:00:37.355Z,535.1539
2023-04-16T03:01:38.845Z,537.1539
2023-04-16T03:02:40.346Z,536.6154
2023-04-16T03:03:41.676Z,535.6154
2023-04-16T03:04:43.127Z,536.4615
2023-04-16T03:05:44.492Z,537.0769
2023-04-16T03:06:46.029Z,539.2308
2023-04-16T03:07:48.231Z,538.8461
2023-04-16T03:08:48.960Z,536.2308
2023-04-16T03:09:51.088Z,533.6154
2023-04-16T03:10:51.780Z,535.6923
2023-04-16T03:11:53.238Z,533.8461
2023-04-16T03:12:54.656Z,534.0000
2023-04-16T03:13:56.098Z,533.8461
2023-04-16T03:14:57.478Z,533.2308
2023-04-16T03:15:59.016Z,535.3846
2023-04-16T03:17:00.602Z,533.8461
2023-04-16T03:18:02.810Z,531.0000
2023-04-16T03:19:03.257Z,536.1539
2023-04-16T03:20:04.736Z,535.2308
2023-04-16T03:21:06.154Z,531.2308
2023-04-16T03:22:08.315Z,527.9231
2023-04-16T03:23:09.182Z,529.2308
2023-04-16T03:24:10.572Z,532.3077
2023-04-16T03:25:11.914Z,532.5385
2023-04-16T03:26:13.439Z,534.1539
2023-04-16T03:27:14.835Z,530.6923
2023-04-16T03:28:16.320Z,531.0000
2023-04-16T03:29:17.758Z,529.3846
2023-04-16T03:30:19.173Z,531.0769
2023-04-16T03:31:20.708Z,527.4615
2023-04-16T03:32:22.077Z,524.6923
2023-04-16T03:33:23.795Z,529.0769
2023-04-16T03:34:25.063Z,530.4615
2023-04-16T03:35:26.378Z,533.0000
2023-04-16T03:36:27.912Z,533.9231
2023-04-16T03:37:29.232Z,533.5385
2023-04-16T03:38:30.779Z,533.2308
2023-04-16T03:39:32.184Z,533.3077
2023-04-16T03:40:33.599Z,531.8461
2023-04-16T03:41:35.007Z,530.8461
2023-04-16T03:42:36.468Z,531.9231
2023-04-16T03:43:37.966Z,530.9231
2023-04-16T03:44:40.270Z,530.2308
2023-04-16T03:45:41.309Z,528.5385
2023-04-16T03:46:42.250Z,526.9231
2023-04-16T03:47:43.810Z,526.3077
2023-04-16T03:48:45.668Z,527.7692
2023-04-16T03:49:48.274Z,529.5385
2023-04-16T03:50:48.047Z,531.3846
2023-04-16T03:51:49.435Z,531.0000
2023-04-16T03:52:51.732Z,531.2308
2023-04-16T03:53:52.327Z,530.6923
2023-04-16T03:54:54.693Z,528.9231
2023-04-16T03:55:55.323Z,526.4615
2023-04-16T03:56:56.620Z,525.5385
2023-04-16T03:58:00.713Z,530.0769
2023-04-16T03:58:59.510Z,532.6154
2023-04-16T04:00:01.359Z,530.3846
2023-04-16T04:01:02.406Z,529.3077
2023-04-16T04:02:04.804Z,529.0000
2023-04-16T04:03:05.370Z,528.2308
2023-04-16T04:04:06.890Z,530.3077
2023-04-16T04:05:08.186Z,528.0000
2023-04-16T04:06:09.620Z,529.7692
2023-04-16T04:07:11.068Z,530.3077
2023-04-16T04:08:12.519Z,530.4615
2023-04-16T04:09:13.914Z,530.0769
2023-04-16T04:10:15.409Z,528.4615
2023-04-16T04:11:16.897Z,528.3077
2023-04-16T04:12:18.244Z,527.7692
2023-04-16T04:13:19.669Z,528.6154
2023-04-16T04:14:21.146Z,527.6154
2023-04-16T04:15:22.713Z,528.0000
2023-04-16T04:16:24.087Z,527.0000
2023-04-16T04:17:25.472Z,526.9231
2023-04-16T04:18:26.928Z,528.6154
2023-04-16T04:19:31.264Z,529.1539
2023-04-16T04:20:29.871Z,529.9231
2023-04-16T04:21:31.743Z,526.6923
2023-04-16T04:22:33.321Z,525.9231
2023-04-16T04:23:34.150Z,527.5385
2023-04-16T04:24:35.582Z,527.1539
2023-04-16T04:25:37.703Z,527.8461
2023-04-16T04:26:38.499Z,528.2308
2023-04-16T04:27:39.856Z,524.5385
2023-04-16T04:28:41.335Z,526.0000
2023-04-16T04:29:42.793Z,527.6154
2023-04-16T04:30:44.218Z,530.4615
2023-04-16T04:31:45.692Z,528.8461
2023-04-16T04:32:47.324Z,528.6923
2023-04-16T04:33:48.459Z,529.3846
2023-04-16T04:34:50.296Z,528.2308
2023-04-16T04:35:51.379Z,528.2308
2023-04-16T04:36:52.948Z,526.8461
2023-04-16T04:37:54.279Z,525.3846
2023-04-16T04:38:55.760Z,522.3846
2023-04-16T04:39:57.133Z,521.4615
2023-04-16T04:40:58.651Z,525.0769
2023-04-16T04:42:00.055Z,525.4615
2023-04-16T04:43:01.531Z,525.8461
2023-04-16T04:44:03.006Z,526.8461
2023-04-16T04:45:04.778Z,528.4615
2023-04-16T04:46:05.861Z,529.2308
2023-04-16T04:47:07.257Z,529.0769
2023-04-16T04:48:08.719Z,527.7692
2023-04-16T04:49:10.443Z,528.0769
2023-04-16T04:50:11.621Z,526.7692
2023-04-16T04:51:13.028Z,528.3077
2023-04-16T04:52:14.408Z,527.9231
2023-04-16T04:53:15.867Z,529.9231
2023-04-16T04:54:17.383Z,529.9231
2023-04-16T04:55:18.841Z,530.5385
2023-04-16T04:56:20.261Z,531.6923
2023-04-16T04:57:21.707Z,529.9231
2023-04-16T04:58:23.077Z,528.5385
2023-04-16T04:59:24.570Z,523.6154
2023-04-16T05:00:26.776Z,520.2308
2023-04-16T05:01:27.469Z,518.5385
2023-04-16T05:02:28.896Z,518.3077
2023-04-16T05:03:30.217Z,517.4615
2023-04-16T05:04:31.612Z,517.5385
2023-04-16T05:05:33.127Z,517.8461
2023-04-16T05:06:36.266Z,518.2308
2023-04-16T05:07:35.996Z,514.4615
2023-04-16T05:08:37.410Z,514.5385
2023-04-16T05:09:38.854Z,514.9231
2023-04-16T05:10:40.333Z,512.2308
2023-04-16T05:11:42.861Z,509.6154
2023-04-16T05:12:43.356Z,507.0000
2023-04-16T05:13:44.695Z,504.6923
2023-04-16T05:14:46.105Z,508.0000
2023-04-16T05:15:47.546Z,507.6154
2023-04-16T05:16:49.929Z,507.0769
2023-04-16T05:17:50.766Z,508.7692
2023-04-16T05:18:51.816Z,509.1538
2023-04-16T05:19:53.292Z,506.9231
2023-04-16T05:20:54.768Z,504.0769
2023-04-16T05:21:56.243Z,502.0769
2023-04-16T05:22:57.705Z,498.6923
2023-04-16T05:23:59.108Z,499.8462
2023-04-16T05:25:00.476Z,500.1538
2023-04-16T05:26:01.980Z,500.1538
2023-04-16T05:27:03.535Z,500.7692
2023-04-16T05:28:04.833Z,499.7692
2023-04-16T05:29:06.201Z,497.4615
2023-04-16T05:30:07.709Z,498.4615
2023-04-16T05:31:09.234Z,500.5385
2023-04-16T05:32:10.587Z,499.3077
2023-04-16T05:33:12.042Z,498.5385
2023-04-16T05:34:13.361Z,498.6923
2023-04-16T05:35:17.231Z,499.8462
2023-04-16T05:36:16.289Z,501.4615
2023-04-16T05:37:18.258Z,501.8462
2023-04-16T05:38:19.171Z,499.9231
2023-04-16T05:39:20.594Z,499.3077
2023-04-16T05:40:22.020Z,498.6154
2023-04-16T05:41:23.510Z,496.9231
2023-04-16T05:42:24.885Z,495.5385
2023-04-16T05:43:26.290Z,495.2308
2023-04-16T05:44:28.238Z,495.7692
2023-04-16T05:45:29.166Z,493.9231
2023-04-16T05:46:30.830Z,494.5385
2023-04-16T05:47:32.117Z,493.6923
2023-04-16T05:48:33.522Z,494.0000
2023-04-16T05:49:34.971Z,495.8462
2023-04-16T05:50:36.355Z,496.3846
2023-04-16T05:51:37.923Z,496.0000
2023-04-16T05:52:39.204Z,498.0769
2023-04-16T05:53:40.694Z,496.0769
2023-04-16T05:54:42.084Z,498.4615
2023-04-16T05:55:43.447Z,496.3077
2023-04-16T05:56:44.941Z,497.0769
2023-04-16T05:57:46.386Z,497.4615
2023-04-16T05:58:47.829Z,495.7692
2023-04-16T05:59:51.280Z,493.8462
2023-04-16T06:00:50.671Z,495.1538
2023-04-16T06:01:52.202Z,496.3846
2023-04-16T06:02:53.751Z,494.5385
2023-04-16T06:03:55.200Z,495.8462
2023-04-16T06:04:56.479Z,495.6154
2023-04-16T06:05:58.069Z,494.6154
2023-04-16T06:06:59.299Z,494.4615
2023-04-16T06:08:00.810Z,494.3846
2023-04-16T06:09:02.237Z,492.7692
2023-04-16T06:10:03.666Z,492.6923
2023-04-16T06:11:05.106Z,492.0769
2023-04-16T06:12:06.546Z,492.4615
2023-04-16T06:13:07.967Z,491.5385
2023-04-16T06:14:09.405Z,490.5385
2023-04-16T06:15:10.877Z,492.0769
2023-04-16T06:16:12.218Z,498.0769
2023-04-16T06:17:13.732Z,496.7692
2023-04-16T06:18:15.142Z,494.7692
2023-04-16T06:19:16.610Z,493.4615
2023-04-16T06:20:18.013Z,493.0000
2023-04-16T06:21:19.474Z,493.6154
2023-04-16T06:22:20.857Z,494.4615
2023-04-16T06:23:23.370Z,497.8462
2023-04-16T06:24:23.766Z,498.5385
2023-04-16T06:25:25.221Z,497.4615
2023-04-16T06:26:26.641Z,496.5385
2023-04-16T06:27:28.104Z,493.3846
2023-04-16T06:28:29.549Z,493.0769
2023-04-16T06:29:40.455Z,492.4615
2023-04-16T06:30:32.399Z,492.4615
2023-04-16T06:31:33.827Z,492.5385
2023-04-16T06:32:35.195Z,494.3846
2023-04-16T06:33:36.647Z,497.1538
2023-04-16T06:34:38.105Z,495.9231
2023-04-16T06:35:39.559Z,495.2308
2023-04-16T06:36:40.929Z,492.3846
2023-04-16T06:37:42.381Z,490.2308
2023-04-16T06:38:43.813Z,489.3846
2023-04-16T06:39:45.264Z,490.4615
2023-04-16T06:40:46.707Z,492.3077
2023-04-16T06:41:48.134Z,493.2308
2023-04-16T06:42:49.554Z,491.4615
2023-04-16T06:43:50.987Z,497.3846
2023-04-16T06:44:52.450Z,499.3077
2023-04-16T06:45:53.908Z,496.6923
2023-04-16T06:46:55.308Z,493.3077
2023-04-16T06:47:56.810Z,488.2308
2023-04-16T06:48:58.169Z,487.1538
2023-04-16T06:49:59.677Z,488.9231
2023-04-16T06:51:01.098Z,490.9231
2023-04-16T06:52:04.569Z,492.0000
2023-04-16T06:53:03.925Z,491.5385
2023-04-16T06:54:05.391Z,491.6923
2023-04-16T06:55:06.772Z,491.4615
2023-04-16T06:56:08.301Z,492.1538
2023-04-16T06:57:09.692Z,493.1538
2023-04-16T06:58:11.096Z,492.7692
2023-04-16T06:59:12.496Z,493.9231
2023-04-16T07:00:14.023Z,492.6154
2023-04-16T07:01:15.490Z,494.5385
2023-04-16T07:02:17.058Z,494.5385
2023-04-16T07:03:18.365Z,491.6923
2023-04-16T07:04:19.789Z,493.6154
2023-04-16T07:05:21.178Z,491.9231
2023-04-16T07:06:22.643Z,492.2308
2023-04-16T07:07:24.028Z,491.3077
2023-04-16T07:08:25.509Z,492.8462
2023-04-16T07:09:26.943Z,491.3846
2023-04-16T07:10:28.409Z,490.4615
2023-04-16T07:11:29.798Z,490.9231
2023-04-16T07:12:31.227Z,491.9231
2023-04-16T07:13:32.691Z,491.0000
2023-04-16T07:14:34.145Z,489.5385
2023-04-16T07:15:35.816Z,488.6923
2023-04-16T07:16:37.091Z,489.7692
2023-04-16T07:17:38.464Z,490.0769
2023-04-16T07:18:39.897Z,492.0000
2023-04-16T07:19:42.274Z,493.1538
2023-04-16T07:20:42.858Z,491.4615
2023-04-16T07:21:44.210Z,494.3846
2023-04-16T07:22:45.649Z,495.3846
2023-04-16T07:23:47.024Z,494.6923
2023-04-16T07:24:48.538Z,488.3846
2023-04-16T07:25:49.975Z,489.6923
2023-04-16T07:26:51.474Z,492.6923
2023-04-16T07:27:52.803Z,494.6923
2023-04-16T07:28:54.268Z,493.3077
2023-04-16T07:29:55.672Z,492.3077
2023-04-16T07:30:57.190Z,492.6923
2023-04-16T07:31:58.654Z,489.0000
2023-04-16T07:33:00.111Z,491.1538
2023-04-16T07:34:01.436Z,491.6923
2023-04-16T07:35:02.892Z,490.8462
2023-04-16T07:36:04.372Z,489.8462
2023-04-16T07:37:05.801Z,491.1538
2023-04-16T07:38:07.162Z,490.1538
2023-04-16T07:39:08.937Z,493.8462
2023-04-16T07:40:10.029Z,491.8462
2023-04-16T07:41:11.538Z,490.3077
2023-04-16T07:42:12.976Z,488.3077
2023-04-16T07:43:14.401Z,488.0769
2023-04-16T07:44:15.815Z,489.8462
2023-04-16T07:45:17.252Z,490.6923
2023-04-16T07:46:18.752Z,489.0000
2023-04-16T07:47:20.209Z,485.8462
2023-04-16T07:48:21.549Z,487.6154
2023-04-16T07:49:23.015Z,487.3077
2023-04-16T07:50:24.416Z,488.0769
2023-04-16T07:51:25.870Z,488.3846
2023-04-16T07:52:27.353Z,488.1538
2023-04-16T07:53:28.700Z,487.6154
2023-04-16T07:54:30.245Z,488.0000
2023-04-16T07:55:31.626Z,492.8462
2023-04-16T07:56:33.190Z,493.3077
2023-04-16T07:57:34.490Z,493.3077
2023-04-16T07:58:35.908Z,497.1538
2023-04-16T07:59:37.386Z,502.3077
2023-04-16T08:00:38.811Z,499.8462
2023-04-16T08:01:40.280Z,499.8462
2023-04-16T08:02:41.927Z,501.3846
2023-04-16T08:03:43.323Z,501.7692
2023-04-16T08:04:44.974Z,504.3077
2023-04-16T08:05:45.991Z,506.3077
2023-04-16T08:06:47.534Z,506.6923
2023-04-16T08:07:48.893Z,504.5385
2023-04-16T08:08:50.374Z,503.6923
2023-04-16T08:09:51.747Z,504.9231
2023-04-16T08:10:53.201Z,503.4615
2023-04-16T08:11:54.664Z,502.0000
2023-04-16T08:12:56.110Z,501.3846
2023-04-16T08:13:57.495Z,500.3846
2023-04-16T08:14:58.945Z,497.6154
2023-04-16T08:16:00.394Z,501.0769
2023-04-16T08:17:01.867Z,504.9231
2023-04-16T08:18:03.338Z,503.0000
2023-04-16T08:19:04.755Z,502.1538
2023-04-16T08:20:06.228Z,499.5385
2023-04-16T08:21:07.628Z,497.8462
2023-04-16T08:22:09.070Z,494.7692
2023-04-16T08:23:10.512Z,494.9231
2023-04-16T08:24:12.905Z,496.0000
2023-04-16T08:25:13.325Z,496.5385
2023-04-16T08:26:14.816Z,496.6154
2023-04-16T08:27:19.746Z,497.4615
2023-04-16T08:28:17.710Z,499.3077
2023-04-16T08:29:19.059Z,496.6923
2023-04-16T08:30:20.558Z,495.6923
2023-04-16T08:31:22.031Z,496.5385
2023-04-16T08:32:23.508Z,496.2308
2023-04-16T08:33:24.943Z,493.6923
2023-04-16T08:34:26.296Z,494.5385
2023-04-16T08:35:27.769Z,493.7692
2023-04-16T08:36:29.176Z,492.6154
2023-04-16T08:37:30.614Z,491.8462
2023-04-16T08:38:32.121Z,493.4615
2023-04-16T08:39:33.460Z,492.6154
2023-04-16T08:40:34.976Z,491.3846
2023-04-16T08:41:36.360Z,494.2308
2023-04-16T08:42:37.914Z,493.0769
2023-04-16T08:43:39.316Z,489.0769
2023-04-16T08:44:40.728Z,490.0769
2023-04-16T08:45:42.111Z,489.1538
2023-04-16T08:46:43.809Z,487.2308
2023-04-16T08:47:45.091Z,485.0000
2023-04-16T08:48:46.540Z,487.9231
2023-04-16T08:49:47.847Z,490.0000
2023-04-16T08:50:49.393Z,487.6923
2023-04-16T08:51:50.782Z,488.2308
2023-04-16T08:52:52.272Z,490.6923
2023-04-16T08:53:53.748Z,492.0000
2023-04-16T08:54:56.697Z,493.7692
2023-04-16T08:55:56.544Z,491.4615
2023-04-16T08:56:58.816Z,492.1538
2023-04-16T08:57:59.534Z,490.3846
2023-04-16T08:59:00.902Z,491.6154
2023-04-16T09:00:02.321Z,490.7692
2023-04-16T09:01:03.700Z,494.3846
2023-04-16T09:02:05.300Z,495.7692
2023-04-16T09:03:06.930Z,496.4615
2023-04-16T09:04:08.226Z,496.8462
2023-04-16T09:05:09.507Z,495.1538
2023-04-16T09:06:10.979Z,495.1538
2023-04-16T09:07:12.362Z,496.7692
2023-04-16T09:08:13.929Z,497.3077
2023-04-16T09:09:15.281Z,498.3846
2023-04-16T09:10:16.737Z,497.7692
2023-04-16T09:11:18.168Z,499.3846
2023-04-16T09:12:19.720Z,499.0769
2023-04-16T09:13:21.220Z,501.0769
2023-04-16T09:14:22.658Z,502.5385
2023-04-16T09:15:24.045Z,500.4615
2023-04-16T09:16:25.539Z,499.4615
2023-04-16T09:17:26.957Z,500.9231
2023-04-16T09:18:28.377Z,499.6923
2023-04-16T09:19:29.894Z,498.6923
2023-04-16T09:20:31.327Z,496.7692
2023-04-16T09:21:32.732Z,495.6154
2023-04-16T09:22:34.127Z,498.1538
2023-04-16T09:23:35.637Z,500.0000
2023-04-16T09:24:37.100Z,499.0000
2023-04-16T09:25:38.599Z,500.4615
2023-04-16T09:26:39.892Z,500.2308
2023-04-16T09:27:41.371Z,499.8462
2023-04-16T09:28:42.853Z,500.9231
2023-04-16T09:29:44.301Z,507.6923
2023-04-16T09:30:45.713Z,507.8462
2023-04-16T09:31:47.205Z,506.3846
2023-04-16T09:32:48.584Z,507.2308
2023-04-16T09:33:50.138Z,503.6154
2023-04-16T09:34:51.471Z,506.6923
2023-04-16T09:35:52.982Z,506.5385
2023-04-16T09:36:54.418Z,506.7692
2023-04-16T09:37:55.821Z,508.5385
2023-04-16T09:38:57.808Z,507.0769
2023-04-16T09:39:58.768Z,506.1538
2023-04-16T09:41:00.129Z,506.1538
2023-04-16T09:42:01.668Z,507.3077
2023-04-16T09:43:03.079Z,508.8462
2023-04-16T09:44:04.514Z,508.2308
2023-04-16T09:45:06.508Z,507.8462
2023-04-16T09:46:08.416Z,508.3846
2023-04-16T09:47:08.750Z,508.6923
2023-04-16T09:48:10.266Z,511.4615
2023-04-16T09:49:11.962Z,511.0000
2023-04-16T09:50:13.315Z,508.4615
2023-04-16T09:51:14.703Z,507.0769
2023-04-16T09:52:16.075Z,507.7692
2023-04-16T09:53:18.452Z,505.0769
2023-04-16T09:54:19.015Z,504.9231
2023-04-16T09:55:20.454Z,505.1538
2023-04-16T09:56:21.894Z,503.5385
2023-04-16T09:57:23.336Z,500.3846
2023-04-16T09:58:24.720Z,499.9231
2023-04-16T09:59:26.204Z,498.5385
2023-04-16T10:00:27.623Z,498.3846
2023-04-16T10:01:29.187Z,496.0769
2023-04-16T10:02:30.501Z,499.8462
2023-04-16T10:03:32.159Z,498.6923
2023-04-16T10:04:33.408Z,496.7692
2023-04-16T10:05:34.939Z,496.3846
2023-04-16T10:06:36.274Z,495.0000
2023-04-16T10:07:37.696Z,496.2308
2023-04-16T10:08:39.106Z,496.3846
2023-04-16T10:09:40.597Z,495.0000
2023-04-16T10:10:42.039Z,495.6154
2023-04-16T10:11:43.526Z,493.0000
2023-04-16T10:12:44.882Z,491.0000
2023-04-16T10:13:46.373Z,487.7692
2023-04-16T10:14:49.606Z,486.6154
2023-04-16T10:15:49.329Z,487.5385
2023-04-16T10:16:50.684Z,487.3846
2023-04-16T10:17:53.023Z,488.5385
2023-04-16T10:18:53.555Z,486.7692
2023-04-16T10:19:55.017Z,485.5385
2023-04-16T10:20:56.927Z,486.2308
2023-04-16T10:21:57.956Z,487.9231
2023-04-16T10:22:59.353Z,487.7692
2023-04-16T10:24:00.817Z,484.2308
2023-04-16T10:25:02.199Z,485.7692
2023-04-16T10:26:03.755Z,484.0769
2023-04-16T10:27:05.136Z,485.2308
2023-04-16T10:28:06.634Z,487.0000
2023-04-16T10:29:08.093Z,486.2308
2023-04-16T10:30:09.495Z,488.8462
2023-04-16T10:31:11.031Z,487.8462
2023-04-16T10:32:12.351Z,489.6154
2023-04-16T10:33:13.856Z,490.2308
2023-04-16T10:34:15.192Z,490.5385
2023-04-16T10:35:16.714Z,490.7692
2023-04-16T10:36:18.137Z,485.5385
2023-04-16T10:37:19.647Z,485.3077
2023-04-16T10:38:21.058Z,488.3077
2023-04-16T10:39:22.432Z,485.0000
2023-04-16T10:40:23.840Z,486.8462
2023-04-16T10:41:25.352Z,492.0000
2023-04-16T10:42:26.799Z,493.3846
2023-04-16T10:43:28.455Z,492.2308
2023-04-16T10:44:29.727Z,491.6154
2023-04-16T10:45:31.078Z,493.3846
2023-04-16T10:46:32.589Z,493.8462
2023-04-16T10:47:34.010Z,495.1538
2023-04-16T10:48:46.564Z,495.0769
2023-04-16T10:49:36.909Z,493.2308
2023-04-16T10:50:38.267Z,494.6154
2023-04-16T10:51:39.739Z,494.5385
2023-04-16T10:52:41.254Z,493.2308
2023-04-16T10:53:42.913Z,491.8462
2023-04-16T10:54:44.156Z,492.8462
2023-04-16T10:55:45.555Z,494.4615
2023-04-16T10:56:47.011Z,495.9231
2023-04-16T10:57:48.389Z,495.3077
2023-04-16T10:58:49.912Z,494.6923
2023-04-16T10:59:51.375Z,495.2308
2023-04-16T11:00:52.736Z,494.0000
2023-04-16T11:01:54.377Z,495.1538
2023-04-16T11:02:55.709Z,495.0000
2023-04-16T11:03:57.319Z,494.2308
2023-04-16T11:04:58.646Z,494.9231
2023-04-16T11:05:59.902Z,496.9231
2023-04-16T11:07:01.410Z,497.3077
2023-04-16T11:08:02.777Z,500.5385
2023-04-16T11:09:04.287Z,498.9231
2023-04-16T11:10:05.764Z,497.5385
2023-04-16T11:11:07.314Z,493.8462
2023-04-16T11:12:08.538Z,494.2308
2023-04-16T11:13:10.046Z,496.5385
2023-04-16T11:14:12.417Z,496.9231
2023-04-16T11:15:13.917Z,497.0000
2023-04-16T11:16:14.444Z,493.0000
2023-04-16T11:17:15.795Z,493.6923
2023-04-16T11:18:17.242Z,495.5385
2023-04-16T11:19:18.691Z,495.3846
2023-04-16T11:20:20.929Z,495.7692
2023-04-16T11:21:21.609Z,497.3846
2023-04-16T11:22:23.169Z,497.7692
2023-04-16T11:23:24.431Z,498.5385
2023-04-16T11:24:26.352Z,498.9231
2023-04-16T11:25:27.286Z,499.3077
2023-04-16T11:26:28.889Z,500.2308
2023-04-16T11:27:30.240Z,498.3846
2023-04-16T11:28:31.724Z,498.7692
2023-04-16T11:29:33.106Z,498.6923
2023-04-16T11:30:34.644Z,499.2308
2023-04-16T11:31:36.155Z,500.0769
2023-04-16T11:32:37.529Z,499.8462
2023-04-16T11:33:38.922Z,500.5385
2023-04-16T11:34:40.390Z,500.9231
2023-04-16T11:35:41.810Z,498.7692
2023-04-16T11:36:43.262Z,498.1538
2023-04-16T11:37:44.702Z,498.3846
2023-04-16T11:38:46.141Z,499.2308
2023-04-16T11:39:47.536Z,500.6154
2023-04-16T11:40:48.987Z,498.6923
2023-04-16T11:41:50.471Z,499.0769
2023-04-16T11:42:52.423Z,498.2308
2023-04-16T11:43:53.356Z,499.4615
2023-04-16T11:44:54.788Z,499.4615
2023-04-16T11:45:56.211Z,501.8462
2023-04-16T11:46:57.771Z,503.2308
2023-04-16T11:47:59.182Z,502.7692
2023-04-16T11:49:00.487Z,503.1538
2023-04-16T11:50:02.059Z,502.4615
2023-04-16T11:51:03.438Z,501.3846
2023-04-16T11:52:04.903Z,500.2308
2023-04-16T11:53:06.400Z,501.3077
2023-04-16T11:54:09.142Z,502.6923
2023-04-16T11:55:09.160Z,503.2308
2023-04-16T11:56:10.616Z,501.2308
2023-04-16T11:57:12.057Z,502.5385
2023-04-16T11:58:13.564Z,502.3846
2023-04-16T11:59:15.248Z,502.8462
2023-04-16T12:00:16.370Z,503.3077
2023-04-16T12:01:17.783Z,501.8462